sensor_id;sensor_type;location;lat;lon;timestamp;P1;durP1;ratioP1;P2;durP2;ratioP2
78858;SDS011;68210;52.032;4.634;2024-01-16T00:00:19;4.32;;;1.20;;
78858;SDS011;68210;52.032;4.634;2024-01-16T00:02:20;8.10;;;2.25;;
78858;SDS011;68210;52.032;4.634;2024-01-16T00:30:51;3.78;;;0.73;;
78858;SDS011;68210;52.032;4.634;2024-01-16T00:32:51;6.28;;;0.88;;
78858;SDS011;68210;52.032;4.634;2024-01-16T00:34:52;6.07;;;1.60;;
78858;SDS011;68210;52.032;4.634;2024-01-16T00:36:52;2.95;;;0.90;;
78858;SDS011;68210;52.032;4.634;2024-01-16T00:38:53;2.15;;;0.60;;
78858;SDS011;68210;52.032;4.634;2024-01-16T00:40:54;1.95;;;0.77;;
78858;SDS011;68210;52.032;4.634;2024-01-16T00:42:54;4.28;;;0.85;;
78858;SDS011;68210;52.032;4.634;2024-01-16T00:44:55;4.18;;;0.50;;
78858;SDS011;68210;52.032;4.634;2024-01-16T00:46:55;6.82;;;0.73;;
78858;SDS011;68210;52.032;4.634;2024-01-16T00:48:56;4.07;;;0.85;;
78858;SDS011;68210;52.032;4.634;2024-01-16T00:50:56;2.20;;;0.82;;
78858;SDS011;68210;52.032;4.634;2024-01-16T00:52:57;5.53;;;0.85;;
78858;SDS011;68210;52.032;4.634;2024-01-16T00:54:58;4.55;;;0.85;;
78858;SDS011;68210;52.032;4.634;2024-01-16T00:56:59;3.28;;;0.55;;
78858;SDS011;68210;52.032;4.634;2024-01-16T00:58:59;6.15;;;0.70;;
78858;SDS011;68210;52.032;4.634;2024-01-16T01:01:00;1.75;;;0.50;;
78858;SDS011;68210;52.032;4.634;2024-01-16T01:03:01;6.43;;;0.75;;
78858;SDS011;68210;52.032;4.634;2024-01-16T01:05:03;3.97;;;0.90;;
78858;SDS011;68210;52.032;4.634;2024-01-16T01:07:05;6.35;;;1.08;;
78858;SDS011;68210;52.032;4.634;2024-01-16T01:09:05;6.40;;;0.90;;
78858;SDS011;68210;52.032;4.634;2024-01-16T01:11:06;4.85;;;0.82;;
78858;SDS011;68210;52.032;4.634;2024-01-16T01:13:07;5.50;;;1.08;;
78858;SDS011;68210;52.032;4.634;2024-01-16T01:15:07;2.80;;;0.63;;
78858;SDS011;68210;52.032;4.634;2024-01-16T01:17:08;3.17;;;0.75;;
78858;SDS011;68210;52.032;4.634;2024-01-16T01:19:08;4.82;;;0.52;;
78858;SDS011;68210;52.032;4.634;2024-01-16T01:21:09;2.25;;;0.85;;
78858;SDS011;68210;52.032;4.634;2024-01-16T01:23:10;1.98;;;0.73;;
78858;SDS011;68210;52.032;4.634;2024-01-16T01:25:13;4.68;;;1.08;;
78858;SDS011;68210;52.032;4.634;2024-01-16T01:27:14;2.90;;;0.60;;
78858;SDS011;68210;52.032;4.634;2024-01-16T01:29:14;3.22;;;0.70;;
78858;SDS011;68210;52.032;4.634;2024-01-16T01:31:15;1.42;;;0.57;;
78858;SDS011;68210;52.032;4.634;2024-01-16T01:33:16;6.63;;;1.10;;
78858;SDS011;68210;52.032;4.634;2024-01-16T01:35:17;4.97;;;0.80;;
78858;SDS011;68210;52.032;4.634;2024-01-16T01:37:19;6.43;;;0.98;;
78858;SDS011;68210;52.032;4.634;2024-01-16T01:39:20;3.10;;;0.85;;
78858;SDS011;68210;52.032;4.634;2024-01-16T01:41:20;4.88;;;0.70;;
78858;SDS011;68210;52.032;4.634;2024-01-16T01:43:21;4.05;;;0.80;;
78858;SDS011;68210;52.032;4.634;2024-01-16T04:21:27;5.35;;;1.00;;
78858;SDS011;68210;52.032;4.634;2024-01-16T04:23:27;7.97;;;1.20;;
78858;SDS011;68210;52.032;4.634;2024-01-16T04:25:27;3.28;;;0.85;;
78858;SDS011;68210;52.032;4.634;2024-01-16T04:27:28;3.42;;;1.30;;
78858;SDS011;68210;52.032;4.634;2024-01-16T04:29:28;2.85;;;1.15;;
78858;SDS011;68210;52.032;4.634;2024-01-16T04:31:29;5.57;;;1.10;;
78858;SDS011;68210;52.032;4.634;2024-01-16T04:33:30;4.38;;;1.38;;
78858;SDS011;68210;52.032;4.634;2024-01-16T04:35:30;6.65;;;1.35;;
78858;SDS011;68210;52.032;4.634;2024-01-16T04:37:30;7.13;;;1.25;;
78858;SDS011;68210;52.032;4.634;2024-01-16T04:39:31;2.42;;;0.93;;
78858;SDS011;68210;52.032;4.634;2024-01-16T04:41:31;5.72;;;1.25;;
78858;SDS011;68210;52.032;4.634;2024-01-16T04:43:31;2.92;;;1.33;;
78858;SDS011;68210;52.032;4.634;2024-01-16T04:45:32;5.10;;;1.20;;
78858;SDS011;68210;52.032;4.634;2024-01-16T04:47:32;5.72;;;1.77;;
78858;SDS011;68210;52.032;4.634;2024-01-16T04:49:33;3.47;;;1.40;;
78858;SDS011;68210;52.032;4.634;2024-01-16T04:51:33;6.70;;;2.00;;
78858;SDS011;68210;52.032;4.634;2024-01-16T04:53:34;5.53;;;2.58;;
78858;SDS011;68210;52.032;4.634;2024-01-16T04:55:34;12.50;;;2.90;;
78858;SDS011;68210;52.032;4.634;2024-01-16T04:57:34;8.00;;;2.78;;
78858;SDS011;68210;52.032;4.634;2024-01-16T04:59:35;8.05;;;2.50;;
78858;SDS011;68210;52.032;4.634;2024-01-16T05:01:35;4.57;;;2.10;;
78858;SDS011;68210;52.032;4.634;2024-01-16T05:03:36;5.15;;;1.83;;
78858;SDS011;68210;52.032;4.634;2024-01-16T05:05:36;7.18;;;2.33;;
78858;SDS011;68210;52.032;4.634;2024-01-16T05:07:37;5.38;;;2.20;;
78858;SDS011;68210;52.032;4.634;2024-01-16T05:09:37;6.05;;;1.90;;
78858;SDS011;68210;52.032;4.634;2024-01-16T05:11:37;4.10;;;1.38;;
78858;SDS011;68210;52.032;4.634;2024-01-16T05:13:38;5.45;;;1.48;;
78858;SDS011;68210;52.032;4.634;2024-01-16T05:15:39;7.18;;;1.73;;
78858;SDS011;68210;52.032;4.634;2024-01-16T05:17:40;4.75;;;1.90;;
78858;SDS011;68210;52.032;4.634;2024-01-16T05:19:41;7.95;;;2.22;;
78858;SDS011;68210;52.032;4.634;2024-01-16T05:21:41;3.70;;;1.38;;
78858;SDS011;68210;52.032;4.634;2024-01-16T05:23:41;4.93;;;1.65;;
78858;SDS011;68210;52.032;4.634;2024-01-16T05:25:42;7.38;;;1.60;;
78858;SDS011;68210;52.032;4.634;2024-01-16T05:27:42;5.95;;;1.92;;
78858;SDS011;68210;52.032;4.634;2024-01-16T05:29:43;3.03;;;1.63;;
78858;SDS011;68210;52.032;4.634;2024-01-16T05:31:43;5.38;;;2.30;;
78858;SDS011;68210;52.032;4.634;2024-01-16T05:33:44;4.63;;;1.80;;
78858;SDS011;68210;52.032;4.634;2024-01-16T05:35:44;10.25;;;2.70;;
78858;SDS011;68210;52.032;4.634;2024-01-16T05:37:45;8.82;;;1.92;;
78858;SDS011;68210;52.032;4.634;2024-01-16T05:39:45;6.97;;;2.15;;
78858;SDS011;68210;52.032;4.634;2024-01-16T05:41:45;6.10;;;1.80;;
78858;SDS011;68210;52.032;4.634;2024-01-16T05:43:46;5.57;;;2.10;;
78858;SDS011;68210;52.032;4.634;2024-01-16T05:45:46;7.50;;;2.03;;
78858;SDS011;68210;52.032;4.634;2024-01-16T05:47:47;10.63;;;2.03;;
78858;SDS011;68210;52.032;4.634;2024-01-16T05:49:47;5.70;;;2.15;;
78858;SDS011;68210;52.032;4.634;2024-01-16T05:51:47;8.30;;;2.65;;
78858;SDS011;68210;52.032;4.634;2024-01-16T05:53:48;7.97;;;2.80;;
78858;SDS011;68210;52.032;4.634;2024-01-16T05:55:48;7.28;;;2.33;;
78858;SDS011;68210;52.032;4.634;2024-01-16T05:57:49;5.72;;;2.30;;
78858;SDS011;68210;52.032;4.634;2024-01-16T05:59:49;7.93;;;2.65;;
78858;SDS011;68210;52.032;4.634;2024-01-16T06:01:49;9.52;;;3.40;;
78858;SDS011;68210;52.032;4.634;2024-01-16T06:03:50;6.82;;;2.63;;
78858;SDS011;68210;52.032;4.634;2024-01-16T06:05:50;9.70;;;3.50;;
78858;SDS011;68210;52.032;4.634;2024-01-16T06:07:51;7.90;;;3.03;;
78858;SDS011;68210;52.032;4.634;2024-01-16T06:09:52;10.48;;;3.00;;
78858;SDS011;68210;52.032;4.634;2024-01-16T06:11:52;14.65;;;4.57;;
78858;SDS011;68210;52.032;4.634;2024-01-16T06:13:53;5.40;;;3.08;;
78858;SDS011;68210;52.032;4.634;2024-01-16T06:15:54;8.65;;;3.25;;
78858;SDS011;68210;52.032;4.634;2024-01-16T06:17:54;6.32;;;3.35;;
78858;SDS011;68210;52.032;4.634;2024-01-16T06:19:55;8.80;;;4.03;;
78858;SDS011;68210;52.032;4.634;2024-01-16T06:21:55;8.85;;;3.65;;
78858;SDS011;68210;52.032;4.634;2024-01-16T06:23:55;6.07;;;3.35;;
78858;SDS011;68210;52.032;4.634;2024-01-16T06:25:56;10.60;;;3.63;;
78858;SDS011;68210;52.032;4.634;2024-01-16T06:27:56;9.30;;;3.63;;
78858;SDS011;68210;52.032;4.634;2024-01-16T06:29:57;11.35;;;4.40;;
78858;SDS011;68210;52.032;4.634;2024-01-16T06:31:57;14.02;;;4.47;;
78858;SDS011;68210;52.032;4.634;2024-01-16T06:33:58;8.48;;;4.03;;
78858;SDS011;68210;52.032;4.634;2024-01-16T06:35:58;11.77;;;4.20;;
78858;SDS011;68210;52.032;4.634;2024-01-16T06:37:58;12.23;;;4.63;;
78858;SDS011;68210;52.032;4.634;2024-01-16T06:39:59;10.18;;;4.45;;
78858;SDS011;68210;52.032;4.634;2024-01-16T06:41:59;8.45;;;3.80;;
78858;SDS011;68210;52.032;4.634;2024-01-16T06:44:00;15.30;;;3.42;;
78858;SDS011;68210;52.032;4.634;2024-01-16T06:46:00;8.35;;;3.65;;
78858;SDS011;68210;52.032;4.634;2024-01-16T06:48:00;14.15;;;4.30;;
78858;SDS011;68210;52.032;4.634;2024-01-16T06:50:01;8.60;;;3.50;;
78858;SDS011;68210;52.032;4.634;2024-01-16T06:52:01;11.27;;;3.75;;
78858;SDS011;68210;52.032;4.634;2024-01-16T06:54:01;10.18;;;3.42;;
78858;SDS011;68210;52.032;4.634;2024-01-16T06:56:02;10.80;;;3.33;;
78858;SDS011;68210;52.032;4.634;2024-01-16T06:58:03;9.95;;;3.20;;
78858;SDS011;68210;52.032;4.634;2024-01-16T07:00:04;12.95;;;3.58;;
78858;SDS011;68210;52.032;4.634;2024-01-16T07:02:07;6.20;;;2.60;;
78858;SDS011;68210;52.032;4.634;2024-01-16T07:04:08;9.60;;;2.25;;
78858;SDS011;68210;52.032;4.634;2024-01-16T07:06:08;6.03;;;2.63;;
78858;SDS011;68210;52.032;4.634;2024-01-16T07:08:09;4.07;;;2.22;;
78858;SDS011;68210;52.032;4.634;2024-01-16T07:10:10;7.93;;;3.28;;
78858;SDS011;68210;52.032;4.634;2024-01-16T07:12:18;11.43;;;2.72;;
78858;SDS011;68210;52.032;4.634;2024-01-16T07:14:18;5.05;;;2.08;;
78858;SDS011;68210;52.032;4.634;2024-01-16T07:16:19;10.98;;;2.17;;
78858;SDS011;68210;52.032;4.634;2024-01-16T07:18:19;6.60;;;1.75;;
78858;SDS011;68210;52.032;4.634;2024-01-16T07:20:20;8.75;;;2.42;;
78858;SDS011;68210;52.032;4.634;2024-01-16T07:22:20;8.15;;;2.25;;
78858;SDS011;68210;52.032;4.634;2024-01-16T07:24:21;5.72;;;1.73;;
78858;SDS011;68210;52.032;4.634;2024-01-16T07:26:21;3.88;;;1.65;;
78858;SDS011;68210;52.032;4.634;2024-01-16T07:28:22;9.90;;;1.98;;
78858;SDS011;68210;52.032;4.634;2024-01-16T07:30:23;10.93;;;2.42;;
78858;SDS011;68210;52.032;4.634;2024-01-16T07:32:23;6.97;;;1.75;;
78858;SDS011;68210;52.032;4.634;2024-01-16T07:34:24;5.65;;;1.77;;
78858;SDS011;68210;52.032;4.634;2024-01-16T07:36:25;7.05;;;1.90;;
78858;SDS011;68210;52.032;4.634;2024-01-16T07:38:25;4.53;;;2.15;;
78858;SDS011;68210;52.032;4.634;2024-01-16T07:40:26;8.90;;;1.70;;
78858;SDS011;68210;52.032;4.634;2024-01-16T07:42:26;4.50;;;1.92;;
78858;SDS011;68210;52.032;4.634;2024-01-16T07:44:33;6.13;;;2.20;;
78858;SDS011;68210;52.032;4.634;2024-01-16T07:46:34;6.40;;;2.20;;
78858;SDS011;68210;52.032;4.634;2024-01-16T07:48:34;4.03;;;1.50;;
78858;SDS011;68210;52.032;4.634;2024-01-16T07:50:34;6.88;;;2.00;;
78858;SDS011;68210;52.032;4.634;2024-01-16T07:52:35;6.95;;;2.03;;
78858;SDS011;68210;52.032;4.634;2024-01-16T07:54:35;7.55;;;2.20;;
78858;SDS011;68210;52.032;4.634;2024-01-16T07:56:36;7.07;;;2.30;;
78858;SDS011;68210;52.032;4.634;2024-01-16T07:58:37;9.05;;;2.28;;
78858;SDS011;68210;52.032;4.634;2024-01-16T08:00:38;11.07;;;3.45;;
78858;SDS011;68210;52.032;4.634;2024-01-16T08:02:38;10.88;;;2.40;;
78858;SDS011;68210;52.032;4.634;2024-01-16T08:04:39;5.53;;;1.90;;
78858;SDS011;68210;52.032;4.634;2024-01-16T08:06:39;5.70;;;2.22;;
78858;SDS011;68210;52.032;4.634;2024-01-16T08:08:39;6.30;;;1.33;;
78858;SDS011;68210;52.032;4.634;2024-01-16T08:10:41;4.72;;;1.55;;
78858;SDS011;68210;52.032;4.634;2024-01-16T08:12:42;9.23;;;1.67;;
78858;SDS011;68210;52.032;4.634;2024-01-16T08:14:43;5.25;;;1.83;;
78858;SDS011;68210;52.032;4.634;2024-01-16T08:16:44;8.93;;;2.00;;
78858;SDS011;68210;52.032;4.634;2024-01-16T08:18:44;4.32;;;2.03;;
78858;SDS011;68210;52.032;4.634;2024-01-16T08:20:44;4.40;;;2.15;;
78858;SDS011;68210;52.032;4.634;2024-01-16T08:22:45;6.97;;;1.85;;
78858;SDS011;68210;52.032;4.634;2024-01-16T08:24:45;8.50;;;1.83;;
78858;SDS011;68210;52.032;4.634;2024-01-16T08:26:46;5.40;;;1.83;;
78858;SDS011;68210;52.032;4.634;2024-01-16T08:28:46;7.47;;;1.55;;
78858;SDS011;68210;52.032;4.634;2024-01-16T08:30:46;3.17;;;1.30;;
78858;SDS011;68210;52.032;4.634;2024-01-16T08:32:47;3.95;;;1.45;;
78858;SDS011;68210;52.032;4.634;2024-01-16T08:34:47;5.30;;;1.52;;
78858;SDS011;68210;52.032;4.634;2024-01-16T08:36:48;5.32;;;1.30;;
78858;SDS011;68210;52.032;4.634;2024-01-16T08:38:48;5.18;;;1.23;;
78858;SDS011;68210;52.032;4.634;2024-01-16T08:40:48;6.05;;;1.17;;
78858;SDS011;68210;52.032;4.634;2024-01-16T08:42:49;4.03;;;1.38;;
78858;SDS011;68210;52.032;4.634;2024-01-16T08:44:54;7.47;;;1.77;;
78858;SDS011;68210;52.032;4.634;2024-01-16T08:46:55;4.03;;;1.58;;
78858;SDS011;68210;52.032;4.634;2024-01-16T08:48:55;3.28;;;1.48;;
78858;SDS011;68210;52.032;4.634;2024-01-16T08:50:55;3.13;;;1.40;;
78858;SDS011;68210;52.032;4.634;2024-01-16T08:52:56;4.80;;;1.20;;
78858;SDS011;68210;52.032;4.634;2024-01-16T08:54:56;8.75;;;1.40;;
78858;SDS011;68210;52.032;4.634;2024-01-16T08:56:57;7.25;;;1.20;;
78858;SDS011;68210;52.032;4.634;2024-01-16T08:58:58;4.10;;;1.30;;
78858;SDS011;68210;52.032;4.634;2024-01-16T09:00:58;6.40;;;1.30;;
78858;SDS011;68210;52.032;4.634;2024-01-16T09:02:58;4.30;;;1.08;;
78858;SDS011;68210;52.032;4.634;2024-01-16T09:04:59;5.30;;;1.30;;
78858;SDS011;68210;52.032;4.634;2024-01-16T09:06:59;4.20;;;1.13;;
78858;SDS011;68210;52.032;4.634;2024-01-16T09:09:00;24.65;;;1.65;;
78858;SDS011;68210;52.032;4.634;2024-01-16T09:11:00;5.35;;;1.33;;
78858;SDS011;68210;52.032;4.634;2024-01-16T09:13:00;4.80;;;1.30;;
78858;SDS011;68210;52.032;4.634;2024-01-16T09:15:01;5.53;;;1.63;;
78858;SDS011;68210;52.032;4.634;2024-01-16T09:17:01;4.55;;;1.90;;
78858;SDS011;68210;52.032;4.634;2024-01-16T09:19:03;2.92;;;1.40;;
78858;SDS011;68210;52.032;4.634;2024-01-16T09:21:03;3.53;;;0.90;;
78858;SDS011;68210;52.032;4.634;2024-01-16T09:23:03;5.55;;;1.30;;
78858;SDS011;68210;52.032;4.634;2024-01-16T09:25:04;8.27;;;1.23;;
78858;SDS011;68210;52.032;4.634;2024-01-16T09:27:06;1.95;;;1.20;;
78858;SDS011;68210;52.032;4.634;2024-01-16T09:29:09;4.20;;;1.23;;
78858;SDS011;68210;52.032;4.634;2024-01-16T09:31:10;5.10;;;1.10;;
78858;SDS011;68210;52.032;4.634;2024-01-16T09:33:10;4.05;;;0.90;;
78858;SDS011;68210;52.032;4.634;2024-01-16T09:35:11;2.60;;;0.95;;
78858;SDS011;68210;52.032;4.634;2024-01-16T09:37:11;1.55;;;1.10;;
78858;SDS011;68210;52.032;4.634;2024-01-16T09:39:14;2.05;;;0.82;;
78858;SDS011;68210;52.032;4.634;2024-01-16T09:41:16;3.33;;;0.90;;
78858;SDS011;68210;52.032;4.634;2024-01-16T09:43:16;3.17;;;0.93;;
78858;SDS011;68210;52.032;4.634;2024-01-16T09:45:19;3.78;;;0.80;;
78858;SDS011;68210;52.032;4.634;2024-01-16T09:47:22;2.78;;;1.27;;
78858;SDS011;68210;52.032;4.634;2024-01-16T09:49:23;2.08;;;1.05;;
78858;SDS011;68210;52.032;4.634;2024-01-16T09:51:23;4.78;;;1.10;;
78858;SDS011;68210;52.032;4.634;2024-01-16T09:53:24;2.50;;;0.77;;
78858;SDS011;68210;52.032;4.634;2024-01-16T09:55:24;6.15;;;1.00;;
78858;SDS011;68210;52.032;4.634;2024-01-16T09:57:25;2.50;;;0.70;;
78858;SDS011;68210;52.032;4.634;2024-01-16T09:59:26;2.42;;;0.88;;
78858;SDS011;68210;52.032;4.634;2024-01-16T10:01:29;3.78;;;1.05;;
78858;SDS011;68210;52.032;4.634;2024-01-16T10:03:31;4.10;;;1.13;;
78858;SDS011;68210;52.032;4.634;2024-01-16T10:05:34;2.85;;;0.60;;
78858;SDS011;68210;52.032;4.634;2024-01-16T10:07:39;2.47;;;0.90;;
78858;SDS011;68210;52.032;4.634;2024-01-16T10:09:41;2.42;;;0.90;;
78858;SDS011;68210;52.032;4.634;2024-01-16T10:11:42;2.45;;;0.88;;
78858;SDS011;68210;52.032;4.634;2024-01-16T10:13:44;3.88;;;0.88;;
78858;SDS011;68210;52.032;4.634;2024-01-16T10:15:44;4.55;;;1.20;;
78858;SDS011;68210;52.032;4.634;2024-01-16T10:17:50;3.15;;;1.15;;
78858;SDS011;68210;52.032;4.634;2024-01-16T10:19:52;2.60;;;0.80;;
78858;SDS011;68210;52.032;4.634;2024-01-16T10:22:00;3.00;;;1.25;;
78858;SDS011;68210;52.032;4.634;2024-01-16T10:24:11;4.18;;;0.90;;
78858;SDS011;68210;52.032;4.634;2024-01-16T10:26:13;3.55;;;0.95;;
78858;SDS011;68210;52.032;4.634;2024-01-16T10:28:15;2.70;;;1.08;;
78858;SDS011;68210;52.032;4.634;2024-01-16T10:30:21;4.45;;;1.58;;
78858;SDS011;68210;52.032;4.634;2024-01-16T10:32:38;2.17;;;0.90;;
78858;SDS011;68210;52.032;4.634;2024-01-16T10:34:40;2.33;;;0.70;;
78858;SDS011;68210;52.032;4.634;2024-01-16T10:36:42;5.00;;;0.80;;
78858;SDS011;68210;52.032;4.634;2024-01-16T10:38:42;1.65;;;0.98;;
78858;SDS011;68210;52.032;4.634;2024-01-16T10:40:44;3.22;;;0.90;;
78858;SDS011;68210;52.032;4.634;2024-01-16T10:42:45;3.42;;;0.90;;
78858;SDS011;68210;52.032;4.634;2024-01-16T10:44:52;12.25;;;1.20;;
78858;SDS011;68210;52.032;4.634;2024-01-16T10:47:09;4.90;;;1.10;;
78858;SDS011;68210;52.032;4.634;2024-01-16T10:49:11;3.35;;;1.23;;
78858;SDS011;68210;52.032;4.634;2024-01-16T10:51:14;2.30;;;0.80;;
78858;SDS011;68210;52.032;4.634;2024-01-16T10:53:15;3.63;;;1.23;;
78858;SDS011;68210;52.032;4.634;2024-01-16T10:55:21;3.38;;;0.82;;
78858;SDS011;68210;52.032;4.634;2024-01-16T10:57:24;3.85;;;0.90;;
78858;SDS011;68210;52.032;4.634;2024-01-16T10:59:25;5.25;;;1.00;;
78858;SDS011;68210;52.032;4.634;2024-01-16T11:01:26;3.33;;;0.73;;
78858;SDS011;68210;52.032;4.634;2024-01-16T11:03:29;1.58;;;0.70;;
78858;SDS011;68210;52.032;4.634;2024-01-16T11:05:35;7.55;;;1.00;;
78858;SDS011;68210;52.032;4.634;2024-01-16T11:07:37;1.65;;;0.82;;
78858;SDS011;68210;52.032;4.634;2024-01-16T11:09:39;1.02;;;0.50;;
78858;SDS011;68210;52.032;4.634;2024-01-16T11:11:42;3.67;;;0.63;;
78858;SDS011;68210;52.032;4.634;2024-01-16T11:13:45;2.72;;;0.90;;
78858;SDS011;68210;52.032;4.634;2024-01-16T11:15:46;3.15;;;0.80;;
78858;SDS011;68210;52.032;4.634;2024-01-16T11:17:48;3.30;;;0.68;;
78858;SDS011;68210;52.032;4.634;2024-01-16T11:19:50;2.28;;;0.82;;
78858;SDS011;68210;52.032;4.634;2024-01-16T11:21:50;1.23;;;0.70;;
78858;SDS011;68210;52.032;4.634;2024-01-16T11:23:52;3.10;;;0.75;;
78858;SDS011;68210;52.032;4.634;2024-01-16T11:25:52;4.45;;;1.40;;
78858;SDS011;68210;52.032;4.634;2024-01-16T11:27:52;3.45;;;0.90;;
78858;SDS011;68210;52.032;4.634;2024-01-16T11:29:53;1.85;;;0.65;;
78858;SDS011;68210;52.032;4.634;2024-01-16T11:31:56;2.92;;;0.85;;
78858;SDS011;68210;52.032;4.634;2024-01-16T11:33:58;2.47;;;0.80;;
78858;SDS011;68210;52.032;4.634;2024-01-16T11:36:00;3.03;;;0.80;;
78858;SDS011;68210;52.032;4.634;2024-01-16T11:38:05;3.22;;;0.77;;
78858;SDS011;68210;52.032;4.634;2024-01-16T11:40:21;1.90;;;0.77;;
78858;SDS011;68210;52.032;4.634;2024-01-16T11:42:27;2.10;;;0.70;;
78858;SDS011;68210;52.032;4.634;2024-01-16T11:44:41;4.13;;;0.70;;
78858;SDS011;68210;52.032;4.634;2024-01-16T11:47:01;3.33;;;0.80;;
78858;SDS011;68210;52.032;4.634;2024-01-16T11:49:02;3.47;;;0.73;;
78858;SDS011;68210;52.032;4.634;2024-01-16T11:51:22;1.88;;;0.70;;
78858;SDS011;68210;52.032;4.634;2024-01-16T11:55:30;3.67;;;0.73;;
78858;SDS011;68210;52.032;4.634;2024-01-16T12:00:01;3.42;;;1.58;;
78858;SDS011;68210;52.032;4.634;2024-01-16T12:02:14;2.80;;;0.60;;
78858;SDS011;68210;52.032;4.634;2024-01-16T12:04:21;1.67;;;0.77;;
78858;SDS011;68210;52.032;4.634;2024-01-16T12:06:22;3.58;;;0.75;;
78858;SDS011;68210;52.032;4.634;2024-01-16T12:08:23;4.65;;;0.73;;
78858;SDS011;68210;52.032;4.634;2024-01-16T12:10:24;2.42;;;0.70;;
78858;SDS011;68210;52.032;4.634;2024-01-16T12:12:25;1.85;;;0.77;;
78858;SDS011;68210;52.032;4.634;2024-01-16T12:14:25;2.45;;;0.65;;
78858;SDS011;68210;52.032;4.634;2024-01-16T12:16:26;3.08;;;1.15;;
78858;SDS011;68210;52.032;4.634;2024-01-16T12:18:27;3.60;;;0.63;;
78858;SDS011;68210;52.032;4.634;2024-01-16T12:20:29;5.90;;;0.80;;
78858;SDS011;68210;52.032;4.634;2024-01-16T12:22:31;2.85;;;0.70;;
78858;SDS011;68210;52.032;4.634;2024-01-16T12:24:31;4.53;;;1.60;;
78858;SDS011;68210;52.032;4.634;2024-01-16T12:26:32;4.30;;;1.38;;
78858;SDS011;68210;52.032;4.634;2024-01-16T12:28:32;2.65;;;0.70;;
78858;SDS011;68210;52.032;4.634;2024-01-16T12:30:35;2.13;;;0.70;;
78858;SDS011;68210;52.032;4.634;2024-01-16T12:32:36;1.25;;;0.50;;
78858;SDS011;68210;52.032;4.634;2024-01-16T12:34:43;1.77;;;0.63;;
78858;SDS011;68210;52.032;4.634;2024-01-16T12:36:47;0.90;;;0.47;;
78858;SDS011;68210;52.032;4.634;2024-01-16T12:39:04;2.08;;;0.75;;
78858;SDS011;68210;52.032;4.634;2024-01-16T12:41:06;1.25;;;0.30;;
78858;SDS011;68210;52.032;4.634;2024-01-16T12:43:09;2.08;;;0.60;;
78858;SDS011;68210;52.032;4.634;2024-01-16T12:45:10;2.08;;;0.70;;
78858;SDS011;68210;52.032;4.634;2024-01-16T12:47:10;1.25;;;0.50;;
78858;SDS011;68210;52.032;4.634;2024-01-16T12:49:15;3.72;;;0.60;;
78858;SDS011;68210;52.032;4.634;2024-01-16T12:51:22;2.85;;;0.70;;
78858;SDS011;68210;52.032;4.634;2024-01-16T12:53:23;1.50;;;0.60;;
78858;SDS011;68210;52.032;4.634;2024-01-16T12:55:24;1.42;;;0.47;;
78858;SDS011;68210;52.032;4.634;2024-01-16T12:57:24;2.45;;;0.65;;
78858;SDS011;68210;52.032;4.634;2024-01-16T12:59:27;1.65;;;0.70;;
78858;SDS011;68210;52.032;4.634;2024-01-16T13:01:29;1.13;;;0.80;;
78858;SDS011;68210;52.032;4.634;2024-01-16T13:03:31;1.98;;;0.63;;
78858;SDS011;68210;52.032;4.634;2024-01-16T13:05:31;2.75;;;0.60;;
78858;SDS011;68210;52.032;4.634;2024-01-16T13:07:32;1.90;;;0.60;;
78858;SDS011;68210;52.032;4.634;2024-01-16T13:09:33;3.38;;;0.82;;
78858;SDS011;68210;52.032;4.634;2024-01-16T13:11:44;2.47;;;0.73;;
78858;SDS011;68210;52.032;4.634;2024-01-16T13:14:01;4.43;;;0.80;;
78858;SDS011;68210;52.032;4.634;2024-01-16T13:16:04;2.92;;;0.70;;
78858;SDS011;68210;52.032;4.634;2024-01-16T13:18:16;2.97;;;0.60;;
78858;SDS011;68210;52.032;4.634;2024-01-16T13:20:18;2.70;;;0.50;;
78858;SDS011;68210;52.032;4.634;2024-01-16T13:22:19;2.17;;;0.47;;
78858;SDS011;68210;52.032;4.634;2024-01-16T13:24:20;1.65;;;0.60;;
78858;SDS011;68210;52.032;4.634;2024-01-16T13:28:23;3.63;;;0.57;;
78858;SDS011;68210;52.032;4.634;2024-01-16T13:30:24;2.38;;;0.68;;
78858;SDS011;68210;52.032;4.634;2024-01-16T13:32:25;4.43;;;0.65;;
78858;SDS011;68210;52.032;4.634;2024-01-16T13:34:26;1.58;;;0.70;;
78858;SDS011;68210;52.032;4.634;2024-01-16T13:36:26;3.03;;;0.70;;
78858;SDS011;68210;52.032;4.634;2024-01-16T13:38:27;1.38;;;0.40;;
78858;SDS011;68210;52.032;4.634;2024-01-16T13:40:28;3.78;;;0.50;;
78858;SDS011;68210;52.032;4.634;2024-01-16T13:42:28;1.33;;;0.70;;
78858;SDS011;68210;52.032;4.634;2024-01-16T13:44:29;2.38;;;0.60;;
78858;SDS011;68210;52.032;4.634;2024-01-16T13:46:29;1.60;;;0.60;;
78858;SDS011;68210;52.032;4.634;2024-01-16T13:48:29;3.38;;;0.75;;
78858;SDS011;68210;52.032;4.634;2024-01-16T13:50:30;3.22;;;0.73;;
78858;SDS011;68210;52.032;4.634;2024-01-16T13:52:32;2.05;;;0.70;;
78858;SDS011;68210;52.032;4.634;2024-01-16T13:54:35;6.03;;;0.68;;
78858;SDS011;68210;52.032;4.634;2024-01-16T13:56:37;1.48;;;0.60;;
78858;SDS011;68210;52.032;4.634;2024-01-16T13:58:39;1.85;;;0.70;;
78858;SDS011;68210;52.032;4.634;2024-01-16T14:00:39;1.63;;;0.60;;
78858;SDS011;68210;52.032;4.634;2024-01-16T14:04:50;2.80;;;0.77;;
78858;SDS011;68210;52.032;4.634;2024-01-16T14:06:51;3.03;;;0.60;;
78858;SDS011;68210;52.032;4.634;2024-01-16T14:08:51;3.80;;;0.80;;
78858;SDS011;68210;52.032;4.634;2024-01-16T14:10:52;3.20;;;1.17;;
78858;SDS011;68210;52.032;4.634;2024-01-16T14:12:52;1.45;;;0.55;;
78858;SDS011;68210;52.032;4.634;2024-01-16T14:14:52;4.30;;;0.70;;
78858;SDS011;68210;52.032;4.634;2024-01-16T14:16:53;1.10;;;0.50;;
78858;SDS011;68210;52.032;4.634;2024-01-16T14:18:54;2.38;;;0.65;;
78858;SDS011;68210;52.032;4.634;2024-01-16T14:20:54;4.18;;;0.90;;
78858;SDS011;68210;52.032;4.634;2024-01-16T14:22:56;1.30;;;0.57;;
78858;SDS011;68210;52.032;4.634;2024-01-16T14:24:57;5.85;;;0.70;;
78858;SDS011;68210;52.032;4.634;2024-01-16T14:26:58;3.15;;;0.77;;
78858;SDS011;68210;52.032;4.634;2024-01-16T14:28:58;6.38;;;0.90;;
78858;SDS011;68210;52.032;4.634;2024-01-16T14:30:59;1.50;;;0.63;;
78858;SDS011;68210;52.032;4.634;2024-01-16T14:33:00;5.25;;;0.55;;
78858;SDS011;68210;52.032;4.634;2024-01-16T14:35:01;2.47;;;1.13;;
78858;SDS011;68210;52.032;4.634;2024-01-16T14:37:04;1.30;;;0.63;;
78858;SDS011;68210;52.032;4.634;2024-01-16T14:39:05;2.42;;;0.77;;
78858;SDS011;68210;52.032;4.634;2024-01-16T14:41:05;5.28;;;0.70;;
78858;SDS011;68210;52.032;4.634;2024-01-16T14:43:09;3.35;;;0.57;;
78858;SDS011;68210;52.032;4.634;2024-01-16T14:45:10;2.28;;;0.80;;
78858;SDS011;68210;52.032;4.634;2024-01-16T14:47:13;4.43;;;0.73;;
78858;SDS011;68210;52.032;4.634;2024-01-16T14:49:14;1.65;;;0.70;;
78858;SDS011;68210;52.032;4.634;2024-01-16T14:51:14;2.00;;;0.77;;
78858;SDS011;68210;52.032;4.634;2024-01-16T14:53:14;1.60;;;0.70;;
78858;SDS011;68210;52.032;4.634;2024-01-16T14:55:15;2.40;;;0.73;;
78858;SDS011;68210;52.032;4.634;2024-01-16T14:57:16;5.60;;;1.02;;
78858;SDS011;68210;52.032;4.634;2024-01-16T14:59:16;2.47;;;0.63;;
78858;SDS011;68210;52.032;4.634;2024-01-16T15:01:17;5.05;;;1.48;;
78858;SDS011;68210;52.032;4.634;2024-01-16T15:03:18;5.03;;;0.85;;
78858;SDS011;68210;52.032;4.634;2024-01-16T15:05:19;2.13;;;0.70;;
78858;SDS011;68210;52.032;4.634;2024-01-16T15:07:20;5.50;;;0.80;;
78858;SDS011;68210;52.032;4.634;2024-01-16T15:09:20;2.10;;;0.85;;
78858;SDS011;68210;52.032;4.634;2024-01-16T15:11:21;2.67;;;0.70;;
78858;SDS011;68210;52.032;4.634;2024-01-16T15:13:22;3.72;;;0.80;;
78858;SDS011;68210;52.032;4.634;2024-01-16T15:15:23;3.40;;;0.98;;
78858;SDS011;68210;52.032;4.634;2024-01-16T15:17:23;3.28;;;1.10;;
78858;SDS011;68210;52.032;4.634;2024-01-16T15:19:24;4.13;;;1.10;;
78858;SDS011;68210;52.032;4.634;2024-01-16T15:21:24;1.48;;;0.63;;
78858;SDS011;68210;52.032;4.634;2024-01-16T15:23:25;2.70;;;0.70;;